createdAt,value
2022-12-23T00:00:30.385Z,100958.03
2022-12-23T00:06:00.916Z,100943.94
2022-12-23T00:11:26.562Z,100957.72
2022-12-23T00:16:51.888Z,100955.69
2022-12-23T00:22:15.036Z,100945.63
2022-12-23T00:27:41.839Z,100928.19
2022-12-23T00:33:10.781Z,100910.97
2022-12-23T00:38:57.526Z,100917.34
2022-12-23T00:44:28.393Z,100902.78
2022-12-23T00:49:57.885Z,100896.25
2022-12-23T00:55:22.551Z,100895.41
2022-12-23T01:01:11.756Z,100889.19
2022-12-23T01:06:40.457Z,100883.66
2022-12-23T01:12:04.982Z,100886.34
2022-12-23T01:17:34.913Z,100876.94
2022-12-23T01:22:58.227Z,100883.31
2022-12-23T01:28:27.148Z,100868.91
2022-12-23T01:33:55.120Z,100879.00
2022-12-23T01:39:25.697Z,100869.09
2022-12-23T01:44:58.418Z,100847.41
2022-12-23T01:50:33.021Z,100855.50
2022-12-23T01:56:04.704Z,100859.19
2022-12-23T02:01:51.073Z,100862.53
2022-12-23T02:07:35.646Z,100854.47
2022-12-23T02:13:08.523Z,100846.78
2022-12-23T02:18:56.147Z,100837.03
2022-12-23T02:24:56.445Z,100842.41
2022-12-23T02:30:43.999Z,100834.66
2022-12-23T02:36:19.678Z,100840.38
2022-12-23T02:41:55.960Z,100827.25
2022-12-23T02:47:31.019Z,100843.91
2022-12-23T02:53:05.791Z,100830.97
2022-12-23T02:58:35.066Z,100834.66
2022-12-23T03:04:03.395Z,100833.31
2022-12-23T03:09:37.326Z,100831.31
2022-12-23T03:15:18.705Z,100836.88
2022-12-23T03:20:54.064Z,100838.53
2022-12-23T03:26:23.170Z,100835.16
2022-12-23T03:31:54.285Z,100841.91
2022-12-23T03:37:26.088Z,100825.41
2022-12-23T03:42:56.254Z,100829.28
2022-12-23T03:48:27.779Z,100823.91
2022-12-23T03:54:02.652Z,100825.25
2022-12-23T03:59:34.348Z,100814.16
2022-12-23T04:05:16.747Z,100808.78
2022-12-23T04:10:47.766Z,100811.28
2022-12-23T04:16:17.150Z,100808.41
2022-12-23T04:21:40.192Z,100801.00
2022-12-23T04:27:07.775Z,100808.06
2022-12-23T04:32:33.291Z,100798.56
2022-12-23T04:38:01.987Z,100785.19
2022-12-23T04:43:32.267Z,100798.28
2022-12-23T04:48:55.188Z,100797.72
2022-12-23T04:54:18.863Z,100799.59
2022-12-23T04:59:44.111Z,100804.47
2022-12-23T05:05:08.230Z,100821.66
2022-12-23T05:10:31.781Z,100809.25
2022-12-23T05:15:56.847Z,100828.38
2022-12-23T05:21:19.387Z,100819.78
2022-12-23T05:26:50.754Z,100822.16
2022-12-23T05:32:17.662Z,100811.34
2022-12-23T05:37:41.758Z,100825.78
2022-12-23T05:43:06.513Z,100832.31
2022-12-23T05:48:30.900Z,100815.97
2022-12-23T05:53:54.768Z,100826.19
2022-12-23T05:59:20.775Z,100848.84
2022-12-23T06:04:46.058Z,100827.59
2022-12-23T06:10:11.928Z,100832.66
2022-12-23T06:15:35.556Z,100820.91
2022-12-23T06:20:59.721Z,100824.69
2022-12-23T06:26:28.984Z,100826.03
2022-12-23T06:31:54.470Z,100834.50
2022-12-23T06:37:20.270Z,100830.63
2022-12-23T06:42:44.433Z,100822.50
2022-12-23T06:48:08.637Z,100827.63
2022-12-23T06:53:34.258Z,100833.66
2022-12-23T06:59:02.764Z,100820.47
2022-12-23T07:04:32.113Z,100813.53
2022-12-23T07:09:57.753Z,100827.44
2022-12-23T07:15:24.937Z,100825.88
2022-12-23T07:20:47.685Z,100843.25
2022-12-23T07:26:15.189Z,100834.78
2022-12-23T07:31:45.161Z,100850.66
2022-12-23T07:37:14.191Z,100838.22
2022-12-23T07:42:47.084Z,100834.22
2022-12-23T07:48:15.818Z,100836.91
2022-12-23T07:53:40.014Z,100829.84
2022-12-23T07:59:10.459Z,100826.97
2022-12-23T08:04:45.641Z,100823.38
2022-12-23T08:10:15.032Z,100821.69
2022-12-23T08:15:40.158Z,100817.06
2022-12-23T08:21:13.051Z,100815.91
2022-12-23T08:26:36.886Z,100806.41
2022-12-23T08:32:04.957Z,100800.81
2022-12-23T08:37:34.166Z,100793.72
2022-12-23T08:43:03.533Z,100795.84
2022-12-23T08:48:34.432Z,100788.78
2022-12-23T08:54:04.578Z,100793.91
2022-12-23T08:59:33.067Z,100780.19
2022-12-23T09:04:57.759Z,100790.84
2022-12-23T09:10:27.102Z,100783.44
2022-12-23T09:15:52.158Z,100781.81
2022-12-23T09:21:24.868Z,100801.69
2022-12-23T09:26:50.950Z,100770.34
2022-12-23T09:32:20.067Z,100771.19
2022-12-23T09:37:50.286Z,100759.19
2022-12-23T09:43:29.127Z,100757.91
2022-12-23T09:49:01.478Z,100749.38
2022-12-23T09:54:29.265Z,100736.66
2022-12-23T10:00:04.030Z,100750.50
2022-12-23T10:05:36.946Z,100735.16
2022-12-23T10:11:08.028Z,100739.16
2022-12-23T10:16:41.693Z,100716.50
2022-12-23T10:22:16.225Z,100721.13
2022-12-23T10:27:46.589Z,100713.38
2022-12-23T10:33:22.252Z,100715.22
2022-12-23T10:39:00.279Z,100700.88
2022-12-23T10:44:47.303Z,100713.91
2022-12-23T10:50:55.382Z,100708.91
2022-12-23T10:56:24.415Z,100710.94
2022-12-23T11:02:02.631Z,100710.28
2022-12-23T11:07:47.345Z,100715.59
2022-12-23T11:13:25.936Z,100706.47
2022-12-23T11:19:01.636Z,100697.47
2022-12-23T11:24:37.984Z,100687.25
2022-12-23T11:30:19.344Z,100675.50
2022-12-23T11:35:49.543Z,100683.03
2022-12-23T11:41:21.986Z,100677.31
2022-12-23T11:46:51.183Z,100685.47
2022-12-23T11:52:23.469Z,100677.31
2022-12-23T11:57:53.821Z,100682.78
2022-12-23T12:03:27.613Z,100689.19
2022-12-23T12:09:01.080Z,100690.41
2022-12-23T12:14:33.893Z,100691.44
2022-12-23T12:20:06.010Z,100682.31
2022-12-23T12:25:41.738Z,100699.59
2022-12-23T12:31:18.206Z,100689.38
2022-12-23T12:36:57.153Z,100687.25
2022-12-23T12:42:33.914Z,100691.59
2022-12-23T12:48:22.663Z,100693.56
2022-12-23T12:54:06.599Z,100691.59
2022-12-23T12:59:39.945Z,100688.34
2022-12-23T13:05:38.344Z,100695.13
2022-12-23T17:12:24.298Z,100664.44
2022-12-23T17:17:51.461Z,100653.22
2022-12-23T17:23:27.457Z,100654.56
2022-12-23T17:28:53.530Z,100665.13
2022-12-23T17:34:24.577Z,100653.91
2022-12-23T17:39:53.563Z,100653.06
2022-12-23T17:45:25.634Z,100653.06
2022-12-23T17:50:52.999Z,100654.56
2022-12-23T17:56:18.311Z,100650.91
2022-12-23T18:01:48.774Z,100655.94
2022-12-23T18:07:13.797Z,100655.94
2022-12-23T18:12:46.004Z,100648.75
2022-12-23T18:18:26.102Z,100658.34
2022-12-23T18:23:59.664Z,100659.34
2022-12-23T18:29:28.514Z,100657.84
2022-12-23T18:34:59.060Z,100664.44
2022-12-23T18:40:26.796Z,100657.00
2022-12-23T18:45:56.223Z,100666.44
2022-12-23T18:51:26.833Z,100668.44
2022-12-23T18:56:55.583Z,100664.75
2022-12-23T19:02:20.301Z,100685.66
2022-12-23T19:07:51.767Z,100670.66
2022-12-23T19:13:21.598Z,100661.41
2022-12-23T19:18:51.339Z,100665.47
2022-12-23T19:24:22.039Z,100661.78
2022-12-23T19:29:50.647Z,100656.38
2022-12-23T19:35:20.101Z,100654.84
2022-12-23T19:40:58.917Z,100666.09
2022-12-23T19:46:27.998Z,100658.34
2022-12-23T19:51:57.676Z,100668.13
2022-12-23T19:57:28.015Z,100661.75
2022-12-23T20:02:58.866Z,100671.13
2022-12-23T20:08:29.008Z,100666.03
2022-12-23T20:13:59.318Z,100669.69
2022-12-23T20:19:29.057Z,100680.94
2022-12-23T20:24:59.433Z,100666.34
2022-12-23T20:30:30.133Z,100666.69
2022-12-23T20:35:59.607Z,100660.00
2022-12-23T20:41:30.327Z,100658.34
2022-12-23T20:47:00.856Z,100655.38
2022-12-23T20:52:29.532Z,100665.16
2022-12-23T20:58:18.704Z,100653.41
2022-12-23T21:03:48.591Z,100661.09
2022-12-23T21:09:17.945Z,100651.72
2022-12-23T21:14:46.812Z,100648.38
2022-12-23T21:20:17.121Z,100639.28
2022-12-23T21:25:46.706Z,100643.34
2022-12-23T21:31:16.808Z,100640.69
2022-12-23T21:36:46.587Z,100646.91
2022-12-23T21:42:15.344Z,100634.28
2022-12-23T21:47:44.298Z,100634.28
2022-12-23T21:53:14.980Z,100635.88
2022-12-23T21:58:43.644Z,100640.63
2022-12-23T22:04:12.989Z,100642.66
2022-12-23T22:09:42.725Z,100641.31
2022-12-23T22:15:11.628Z,100649.34
2022-12-23T22:20:44.277Z,100636.63
2022-12-23T22:26:24.803Z,100643.22
2022-12-23T22:31:54.998Z,100634.28
2022-12-23T22:37:24.222Z,100622.22
2022-12-23T22:42:50.956Z,100618.47
2022-12-23T22:48:14.765Z,100624.56
2022-12-23T22:53:38.471Z,100614.66
2022-12-23T22:59:03.079Z,100620.50
2022-12-23T23:04:31.853Z,100609.38
2022-12-23T23:09:56.851Z,100616.47
2022-12-23T23:15:23.504Z,100607.72
2022-12-23T23:20:52.950Z,100617.63
2022-12-23T23:26:22.402Z,100603.44
2022-12-23T23:31:53.086Z,100610.66
2022-12-23T23:37:22.342Z,100615.38
2022-12-23T23:42:50.523Z,100606.00
2022-12-23T23:48:16.379Z,100600.38
2022-12-23T23:53:45.584Z,100596.56
2022-12-23T23:59:14.800Z,100592.56
